sensor_id;sensor_type;location;lat;lon;timestamp;P1;durP1;ratioP1;P2;durP2;ratioP2
48873;SDS011;66155;46.204;5.220;2023-04-24T00:04:21;2.33;;;1.33;;
48873;SDS011;66155;46.204;5.220;2023-04-24T00:09:22;2.97;;;1.05;;
48873;SDS011;66155;46.204;5.220;2023-04-24T00:14:23;2.42;;;1.20;;
48873;SDS011;66155;46.204;5.220;2023-04-24T00:19:24;3.42;;;1.45;;
48873;SDS011;66155;46.204;5.220;2023-04-24T00:24:24;1.47;;;1.13;;
48873;SDS011;66155;46.204;5.220;2023-04-24T00:29:24;1.50;;;1.00;;
48873;SDS011;66155;46.204;5.220;2023-04-24T00:34:25;2.10;;;1.17;;
48873;SDS011;66155;46.204;5.220;2023-04-24T00:39:25;2.92;;;1.40;;
48873;SDS011;66155;46.204;5.220;2023-04-24T00:44:26;1.77;;;1.08;;
48873;SDS011;66155;46.204;5.220;2023-04-24T00:49:27;2.50;;;1.10;;
48873;SDS011;66155;46.204;5.220;2023-04-24T00:54:27;1.48;;;1.30;;
48873;SDS011;66155;46.204;5.220;2023-04-24T00:59:28;2.47;;;1.40;;
48873;SDS011;66155;46.204;5.220;2023-04-24T01:04:28;1.83;;;1.25;;
48873;SDS011;66155;46.204;5.220;2023-04-24T01:09:29;3.67;;;1.33;;
48873;SDS011;66155;46.204;5.220;2023-04-24T01:14:29;2.22;;;1.20;;
48873;SDS011;66155;46.204;5.220;2023-04-24T01:19:30;2.65;;;1.20;;
48873;SDS011;66155;46.204;5.220;2023-04-24T01:24:31;3.55;;;1.40;;
48873;SDS011;66155;46.204;5.220;2023-04-24T01:29:32;2.85;;;1.33;;
48873;SDS011;66155;46.204;5.220;2023-04-24T01:34:32;2.65;;;1.40;;
48873;SDS011;66155;46.204;5.220;2023-04-24T01:39:33;2.95;;;1.67;;
48873;SDS011;66155;46.204;5.220;2023-04-24T01:44:34;2.83;;;1.17;;
48873;SDS011;66155;46.204;5.220;2023-04-24T01:49:34;2.28;;;1.23;;
48873;SDS011;66155;46.204;5.220;2023-04-24T01:54:35;2.42;;;1.50;;
48873;SDS011;66155;46.204;5.220;2023-04-24T01:59:35;2.40;;;1.30;;
48873;SDS011;66155;46.204;5.220;2023-04-24T02:04:36;3.15;;;1.30;;
48873;SDS011;66155;46.204;5.220;2023-04-24T02:09:37;3.60;;;2.03;;
48873;SDS011;66155;46.204;5.220;2023-04-24T02:14:37;2.80;;;1.40;;
48873;SDS011;66155;46.204;5.220;2023-04-24T02:19:38;2.63;;;1.52;;
48873;SDS011;66155;46.204;5.220;2023-04-24T02:24:39;2.63;;;1.30;;
48873;SDS011;66155;46.204;5.220;2023-04-24T02:29:39;2.65;;;1.45;;
48873;SDS011;66155;46.204;5.220;2023-04-24T02:34:39;2.05;;;1.40;;
48873;SDS011;66155;46.204;5.220;2023-04-24T02:39:40;2.25;;;1.40;;
48873;SDS011;66155;46.204;5.220;2023-04-24T02:44:40;5.10;;;1.17;;
48873;SDS011;66155;46.204;5.220;2023-04-24T02:49:41;1.20;;;1.10;;
48873;SDS011;66155;46.204;5.220;2023-04-24T02:54:42;4.85;;;1.40;;
48873;SDS011;66155;46.204;5.220;2023-04-24T02:59:43;2.17;;;1.30;;
48873;SDS011;66155;46.204;5.220;2023-04-24T03:04:43;2.15;;;1.10;;
48873;SDS011;66155;46.204;5.220;2023-04-24T03:09:44;5.38;;;1.40;;
48873;SDS011;66155;46.204;5.220;2023-04-24T03:14:44;3.33;;;1.42;;
48873;SDS011;66155;46.204;5.220;2023-04-24T03:19:44;3.37;;;1.33;;
48873;SDS011;66155;46.204;5.220;2023-04-24T03:24:45;2.65;;;1.63;;
48873;SDS011;66155;46.204;5.220;2023-04-24T03:29:45;2.87;;;1.50;;
48873;SDS011;66155;46.204;5.220;2023-04-24T03:34:46;4.95;;;1.40;;
48873;SDS011;66155;46.204;5.220;2023-04-24T03:39:46;3.37;;;1.60;;
48873;SDS011;66155;46.204;5.220;2023-04-24T03:44:46;3.80;;;1.35;;
48873;SDS011;66155;46.204;5.220;2023-04-24T03:49:47;1.88;;;1.50;;
48873;SDS011;66155;46.204;5.220;2023-04-24T03:54:47;4.60;;;1.60;;
48873;SDS011;66155;46.204;5.220;2023-04-24T03:59:48;2.10;;;1.42;;
48873;SDS011;66155;46.204;5.220;2023-04-24T04:04:48;5.28;;;1.50;;
48873;SDS011;66155;46.204;5.220;2023-04-24T04:09:48;7.25;;;1.70;;
48873;SDS011;66155;46.204;5.220;2023-04-24T04:14:49;3.33;;;1.83;;
48873;SDS011;66155;46.204;5.220;2023-04-24T04:19:49;3.40;;;1.63;;
48873;SDS011;66155;46.204;5.220;2023-04-24T04:24:50;4.20;;;1.70;;
48873;SDS011;66155;46.204;5.220;2023-04-24T04:29:51;4.60;;;1.50;;
48873;SDS011;66155;46.204;5.220;2023-04-24T04:34:51;3.28;;;1.60;;
48873;SDS011;66155;46.204;5.220;2023-04-24T04:39:53;4.88;;;2.05;;
48873;SDS011;66155;46.204;5.220;2023-04-24T04:44:53;5.28;;;1.73;;
48873;SDS011;66155;46.204;5.220;2023-04-24T04:49:54;5.05;;;1.73;;
48873;SDS011;66155;46.204;5.220;2023-04-24T04:54:54;2.65;;;1.33;;
48873;SDS011;66155;46.204;5.220;2023-04-24T04:59:55;6.90;;;1.50;;
48873;SDS011;66155;46.204;5.220;2023-04-24T05:04:55;4.78;;;1.70;;
48873;SDS011;66155;46.204;5.220;2023-04-24T05:09:56;4.63;;;2.05;;
48873;SDS011;66155;46.204;5.220;2023-04-24T05:14:56;4.68;;;1.92;;
48873;SDS011;66155;46.204;5.220;2023-04-24T05:19:57;5.45;;;1.70;;
48873;SDS011;66155;46.204;5.220;2023-04-24T05:24:57;2.95;;;1.48;;
48873;SDS011;66155;46.204;5.220;2023-04-24T05:29:58;3.63;;;1.80;;
48873;SDS011;66155;46.204;5.220;2023-04-24T05:34:58;1.93;;;1.47;;
48873;SDS011;66155;46.204;5.220;2023-04-24T05:39:59;6.47;;;1.90;;
48873;SDS011;66155;46.204;5.220;2023-04-24T05:44:59;4.28;;;2.10;;
48873;SDS011;66155;46.204;5.220;2023-04-24T05:49:59;4.13;;;1.77;;
48873;SDS011;66155;46.204;5.220;2023-04-24T05:55:00;4.63;;;1.90;;
48873;SDS011;66155;46.204;5.220;2023-04-24T06:00:00;5.63;;;2.45;;
48873;SDS011;66155;46.204;5.220;2023-04-24T06:05:01;3.78;;;1.90;;
48873;SDS011;66155;46.204;5.220;2023-04-24T06:10:01;4.90;;;1.92;;
48873;SDS011;66155;46.204;5.220;2023-04-24T06:15:03;4.15;;;2.00;;
48873;SDS011;66155;46.204;5.220;2023-04-24T06:20:04;9.00;;;8.20;;
48873;SDS011;66155;46.204;5.220;2023-04-24T06:25:06;9.18;;;8.57;;
48873;SDS011;66155;46.204;5.220;2023-04-24T06:30:07;10.90;;;7.90;;
48873;SDS011;66155;46.204;5.220;2023-04-24T06:35:08;10.73;;;9.95;;
48873;SDS011;66155;46.204;5.220;2023-04-24T06:40:09;10.88;;;9.90;;
48873;SDS011;66155;46.204;5.220;2023-04-24T06:45:10;10.38;;;9.50;;
48873;SDS011;66155;46.204;5.220;2023-04-24T06:50:11;10.63;;;9.73;;
48873;SDS011;66155;46.204;5.220;2023-04-24T06:55:11;12.50;;;11.43;;
48873;SDS011;66155;46.204;5.220;2023-04-24T07:00:12;13.40;;;12.48;;
48873;SDS011;66155;46.204;5.220;2023-04-24T07:05:13;14.20;;;13.25;;
48873;SDS011;66155;46.204;5.220;2023-04-24T07:10:15;14.90;;;14.00;;
48873;SDS011;66155;46.204;5.220;2023-04-24T07:15:15;13.27;;;12.32;;
48873;SDS011;66155;46.204;5.220;2023-04-24T07:20:16;14.07;;;13.27;;
48873;SDS011;66155;46.204;5.220;2023-04-24T07:25:17;13.70;;;12.70;;
48873;SDS011;66155;46.204;5.220;2023-04-24T07:30:17;15.65;;;14.73;;
48873;SDS011;66155;46.204;5.220;2023-04-24T07:35:18;14.77;;;13.77;;
48873;SDS011;66155;46.204;5.220;2023-04-24T07:40:18;14.40;;;13.40;;
48873;SDS011;66155;46.204;5.220;2023-04-24T07:45:19;12.70;;;11.80;;
48873;SDS011;66155;46.204;5.220;2023-04-24T07:50:19;13.00;;;12.30;;
48873;SDS011;66155;46.204;5.220;2023-04-24T07:55:20;12.57;;;11.98;;
48873;SDS011;66155;46.204;5.220;2023-04-24T08:00:21;11.98;;;11.13;;
48873;SDS011;66155;46.204;5.220;2023-04-24T08:05:21;11.05;;;10.43;;
48873;SDS011;66155;46.204;5.220;2023-04-24T08:10:22;15.07;;;14.32;;
48873;SDS011;66155;46.204;5.220;2023-04-24T08:15:23;12.80;;;12.10;;
48873;SDS011;66155;46.204;5.220;2023-04-24T08:20:24;14.43;;;13.63;;
48873;SDS011;66155;46.204;5.220;2023-04-24T08:25:24;27.45;;;26.25;;
48873;SDS011;66155;46.204;5.220;2023-04-24T08:30:25;14.60;;;13.80;;
48873;SDS011;66155;46.204;5.220;2023-04-24T08:35:25;13.70;;;13.00;;
48873;SDS011;66155;46.204;5.220;2023-04-24T08:40:27;14.80;;;14.10;;
48873;SDS011;66155;46.204;5.220;2023-04-24T08:45:32;14.07;;;13.27;;
48873;SDS011;66155;46.204;5.220;2023-04-24T08:50:32;15.63;;;14.93;;
48873;SDS011;66155;46.204;5.220;2023-04-24T08:55:35;15.57;;;14.82;;
48873;SDS011;66155;46.204;5.220;2023-04-24T09:00:37;15.95;;;14.98;;
48873;SDS011;66155;46.204;5.220;2023-04-24T09:05:39;22.33;;;21.40;;
48873;SDS011;66155;46.204;5.220;2023-04-24T09:10:40;15.30;;;14.50;;
48873;SDS011;66155;46.204;5.220;2023-04-24T09:15:41;15.90;;;15.10;;
48873;SDS011;66155;46.204;5.220;2023-04-24T09:26:03;6.47;;;6.07;;
48873;SDS011;66155;46.204;5.220;2023-04-24T09:31:08;5.50;;;5.10;;
48873;SDS011;66155;46.204;5.220;2023-04-24T09:36:10;4.63;;;4.10;;
48873;SDS011;66155;46.204;5.220;2023-04-24T09:41:13;5.63;;;3.80;;
48873;SDS011;66155;46.204;5.220;2023-04-24T09:46:13;5.43;;;4.80;;
48873;SDS011;66155;46.204;5.220;2023-04-24T09:51:14;4.60;;;4.30;;
48873;SDS011;66155;46.204;5.220;2023-04-24T09:56:15;7.75;;;7.20;;
48873;SDS011;66155;46.204;5.220;2023-04-24T10:01:16;3.80;;;3.50;;
48873;SDS011;66155;46.204;5.220;2023-04-24T10:06:33;4.38;;;4.07;;
48873;SDS011;66155;46.204;5.220;2023-04-24T10:11:34;5.25;;;4.43;;
48873;SDS011;66155;46.204;5.220;2023-04-24T10:16:39;5.25;;;4.57;;
48873;SDS011;66155;46.204;5.220;2023-04-24T10:21:41;7.30;;;4.30;;
48873;SDS011;66155;46.204;5.220;2023-04-24T10:26:43;4.35;;;3.95;;
48873;SDS011;66155;46.204;5.220;2023-04-24T10:31:44;4.85;;;3.90;;
48873;SDS011;66155;46.204;5.220;2023-04-24T10:36:50;4.97;;;4.10;;
48873;SDS011;66155;46.204;5.220;2023-04-24T10:41:52;4.40;;;4.00;;
48873;SDS011;66155;46.204;5.220;2023-04-24T10:46:54;5.15;;;4.50;;
48873;SDS011;66155;46.204;5.220;2023-04-24T10:51:59;4.28;;;3.97;;
48873;SDS011;66155;46.204;5.220;2023-04-24T11:02:35;4.80;;;4.40;;
48873;SDS011;66155;46.204;5.220;2023-04-24T11:13:21;5.00;;;4.65;;
48873;SDS011;66155;46.204;5.220;2023-04-24T11:18:22;4.20;;;3.90;;
48873;SDS011;66155;46.204;5.220;2023-04-24T11:23:23;5.30;;;4.25;;
48873;SDS011;66155;46.204;5.220;2023-04-24T11:28:23;4.40;;;4.10;;
48873;SDS011;66155;46.204;5.220;2023-04-24T11:33:24;5.15;;;4.75;;
48873;SDS011;66155;46.204;5.220;2023-04-24T11:38:25;6.05;;;4.30;;
48873;SDS011;66155;46.204;5.220;2023-04-24T11:43:25;7.18;;;6.65;;
48873;SDS011;66155;46.204;5.220;2023-04-24T11:48:26;4.95;;;4.55;;
48873;SDS011;66155;46.204;5.220;2023-04-24T11:53:26;4.65;;;4.22;;
48873;SDS011;66155;46.204;5.220;2023-04-24T11:58:27;7.50;;;4.63;;
48873;SDS011;66155;46.204;5.220;2023-04-24T12:03:27;5.38;;;4.93;;
48873;SDS011;66155;46.204;5.220;2023-04-24T12:08:28;4.95;;;4.65;;
48873;SDS011;66155;46.204;5.220;2023-04-24T12:13:29;5.20;;;4.80;;
48873;SDS011;66155;46.204;5.220;2023-04-24T12:18:29;7.15;;;6.65;;
48873;SDS011;66155;46.204;5.220;2023-04-24T12:23:33;5.50;;;5.10;;
48873;SDS011;66155;46.204;5.220;2023-04-24T12:28:36;5.15;;;4.75;;
48873;SDS011;66155;46.204;5.220;2023-04-24T12:33:37;6.28;;;5.40;;
48873;SDS011;66155;46.204;5.220;2023-04-24T12:38:38;5.75;;;5.25;;
48873;SDS011;66155;46.204;5.220;2023-04-24T12:43:53;5.03;;;4.72;;
48873;SDS011;66155;46.204;5.220;2023-04-24T12:48:55;6.00;;;5.40;;
48873;SDS011;66155;46.204;5.220;2023-04-24T12:53:55;5.93;;;5.35;;
48873;SDS011;66155;46.204;5.220;2023-04-24T12:58:56;5.82;;;5.22;;
48873;SDS011;66155;46.204;5.220;2023-04-24T13:03:57;5.57;;;5.17;;
48873;SDS011;66155;46.204;5.220;2023-04-24T13:08:57;5.75;;;5.18;;
48873;SDS011;66155;46.204;5.220;2023-04-24T13:13:58;6.03;;;5.45;;
48873;SDS011;66155;46.204;5.220;2023-04-24T13:18:58;7.50;;;6.80;;
48873;SDS011;66155;46.204;5.220;2023-04-24T13:23:58;6.13;;;5.57;;
48873;SDS011;66155;46.204;5.220;2023-04-24T13:28:59;5.63;;;4.63;;
48873;SDS011;66155;46.204;5.220;2023-04-24T13:34:00;5.30;;;4.88;;
48873;SDS011;66155;46.204;5.220;2023-04-24T13:39:00;5.40;;;4.53;;
48873;SDS011;66155;46.204;5.220;2023-04-24T13:44:01;6.18;;;5.68;;
48873;SDS011;66155;46.204;5.220;2023-04-24T13:49:02;5.63;;;5.00;;
48873;SDS011;66155;46.204;5.220;2023-04-24T13:54:03;7.40;;;4.97;;
48873;SDS011;66155;46.204;5.220;2023-04-24T13:59:04;5.43;;;5.00;;
48873;SDS011;66155;46.204;5.220;2023-04-24T14:04:05;5.40;;;4.70;;
48873;SDS011;66155;46.204;5.220;2023-04-24T14:09:06;5.45;;;5.03;;
48873;SDS011;66155;46.204;5.220;2023-04-24T14:14:06;6.28;;;5.07;;
48873;SDS011;66155;46.204;5.220;2023-04-24T14:19:08;9.43;;;8.77;;
48873;SDS011;66155;46.204;5.220;2023-04-24T14:24:08;5.20;;;4.80;;
48873;SDS011;66155;46.204;5.220;2023-04-24T14:29:09;6.82;;;6.03;;
48873;SDS011;66155;46.204;5.220;2023-04-24T14:34:09;7.25;;;6.65;;
48873;SDS011;66155;46.204;5.220;2023-04-24T14:39:10;6.97;;;4.60;;
48873;SDS011;66155;46.204;5.220;2023-04-24T14:44:10;5.15;;;4.75;;
48873;SDS011;66155;46.204;5.220;2023-04-24T14:49:11;6.30;;;5.40;;
48873;SDS011;66155;46.204;5.220;2023-04-24T14:54:12;5.15;;;4.78;;
48873;SDS011;66155;46.204;5.220;2023-04-24T14:59:14;5.72;;;5.13;;
48873;SDS011;66155;46.204;5.220;2023-04-24T15:04:14;5.18;;;4.45;;
48873;SDS011;66155;46.204;5.220;2023-04-24T15:09:15;7.60;;;5.60;;
48873;SDS011;66155;46.204;5.220;2023-04-24T15:14:15;5.83;;;5.23;;
48873;SDS011;66155;46.204;5.220;2023-04-24T15:19:17;6.65;;;5.22;;
48873;SDS011;66155;46.204;5.220;2023-04-24T15:24:17;5.35;;;5.03;;
48873;SDS011;66155;46.204;5.220;2023-04-24T15:29:17;5.70;;;5.20;;
48873;SDS011;66155;46.204;5.220;2023-04-24T15:34:18;5.25;;;4.78;;
48873;SDS011;66155;46.204;5.220;2023-04-24T15:39:21;5.57;;;5.15;;
48873;SDS011;66155;46.204;5.220;2023-04-24T15:44:22;6.35;;;5.63;;
48873;SDS011;66155;46.204;5.220;2023-04-24T15:49:23;6.28;;;5.68;;
48873;SDS011;66155;46.204;5.220;2023-04-24T15:54:23;5.43;;;4.93;;
48873;SDS011;66155;46.204;5.220;2023-04-24T15:59:24;5.00;;;4.60;;
48873;SDS011;66155;46.204;5.220;2023-04-24T16:04:24;8.20;;;7.50;;
48873;SDS011;66155;46.204;5.220;2023-04-24T16:09:25;6.28;;;5.30;;
48873;SDS011;66155;46.204;5.220;2023-04-24T16:14:25;5.15;;;4.75;;
48873;SDS011;66155;46.204;5.220;2023-04-24T16:19:26;5.43;;;4.80;;
48873;SDS011;66155;46.204;5.220;2023-04-24T16:24:27;5.72;;;5.10;;
48873;SDS011;66155;46.204;5.220;2023-04-24T16:29:29;7.18;;;6.68;;
48873;SDS011;66155;46.204;5.220;2023-04-24T16:34:30;9.18;;;8.38;;
48873;SDS011;66155;46.204;5.220;2023-04-24T16:39:31;5.20;;;4.70;;
48873;SDS011;66155;46.204;5.220;2023-04-24T16:44:31;6.95;;;5.13;;
48873;SDS011;66155;46.204;5.220;2023-04-24T16:49:32;6.78;;;4.68;;
48873;SDS011;66155;46.204;5.220;2023-04-24T16:54:32;5.55;;;4.45;;
48873;SDS011;66155;46.204;5.220;2023-04-24T16:59:34;5.90;;;4.57;;
48873;SDS011;66155;46.204;5.220;2023-04-24T17:04:35;7.55;;;6.85;;
48873;SDS011;66155;46.204;5.220;2023-04-24T17:09:36;5.53;;;4.80;;
48873;SDS011;66155;46.204;5.220;2023-04-24T17:14:36;7.65;;;5.28;;
48873;SDS011;66155;46.204;5.220;2023-04-24T17:19:37;5.90;;;5.50;;
48873;SDS011;66155;46.204;5.220;2023-04-24T17:24:37;7.40;;;5.60;;
48873;SDS011;66155;46.204;5.220;2023-04-24T17:29:38;7.82;;;7.38;;
48873;SDS011;66155;46.204;5.220;2023-04-24T17:34:39;6.32;;;5.72;;
48873;SDS011;66155;46.204;5.220;2023-04-24T17:39:40;5.95;;;5.10;;
48873;SDS011;66155;46.204;5.220;2023-04-24T17:44:41;6.90;;;4.97;;
48873;SDS011;66155;46.204;5.220;2023-04-24T17:49:41;9.27;;;5.00;;
48873;SDS011;66155;46.204;5.220;2023-04-24T17:54:42;6.00;;;5.40;;
48873;SDS011;66155;46.204;5.220;2023-04-24T17:59:43;6.22;;;5.18;;
48873;SDS011;66155;46.204;5.220;2023-04-24T18:04:43;6.13;;;5.35;;
48873;SDS011;66155;46.204;5.220;2023-04-24T18:09:43;5.90;;;4.82;;
48873;SDS011;66155;46.204;5.220;2023-04-24T18:14:44;5.50;;;5.00;;
48873;SDS011;66155;46.204;5.220;2023-04-24T18:19:44;7.35;;;5.00;;
48873;SDS011;66155;46.204;5.220;2023-04-24T18:24:45;5.68;;;5.15;;
48873;SDS011;66155;46.204;5.220;2023-04-24T18:29:45;6.75;;;6.15;;
48873;SDS011;66155;46.204;5.220;2023-04-24T18:34:46;5.68;;;4.97;;
48873;SDS011;66155;46.204;5.220;2023-04-24T18:39:46;5.47;;;4.95;;
48873;SDS011;66155;46.204;5.220;2023-04-24T18:44:49;8.30;;;5.60;;
48873;SDS011;66155;46.204;5.220;2023-04-24T18:49:50;6.22;;;4.82;;
48873;SDS011;66155;46.204;5.220;2023-04-24T18:54:50;7.38;;;4.82;;
48873;SDS011;66155;46.204;5.220;2023-04-24T18:59:51;6.82;;;5.25;;
48873;SDS011;66155;46.204;5.220;2023-04-24T19:04:51;5.75;;;5.25;;
48873;SDS011;66155;46.204;5.220;2023-04-24T19:09:52;7.63;;;7.13;;
48873;SDS011;66155;46.204;5.220;2023-04-24T19:14:52;7.20;;;5.53;;
48873;SDS011;66155;46.204;5.220;2023-04-24T19:19:54;5.65;;;4.82;;
48873;SDS011;66155;46.204;5.220;2023-04-24T19:24:55;5.40;;;4.90;;
48873;SDS011;66155;46.204;5.220;2023-04-24T19:29:57;6.78;;;5.35;;
48873;SDS011;66155;46.204;5.220;2023-04-24T19:34:58;9.95;;;6.05;;
48873;SDS011;66155;46.204;5.220;2023-04-24T19:39:58;5.70;;;5.15;;
48873;SDS011;66155;46.204;5.220;2023-04-24T19:44:59;6.00;;;5.30;;
48873;SDS011;66155;46.204;5.220;2023-04-24T19:49:59;7.22;;;5.20;;
48873;SDS011;66155;46.204;5.220;2023-04-24T19:55:00;6.03;;;5.22;;
48873;SDS011;66155;46.204;5.220;2023-04-24T20:00:00;8.55;;;5.35;;
48873;SDS011;66155;46.204;5.220;2023-04-24T20:05:01;5.70;;;4.97;;
48873;SDS011;66155;46.204;5.220;2023-04-24T20:10:01;6.63;;;5.17;;
48873;SDS011;66155;46.204;5.220;2023-04-24T20:15:02;6.93;;;4.85;;
48873;SDS011;66155;46.204;5.220;2023-04-24T20:20:04;8.65;;;5.70;;
48873;SDS011;66155;46.204;5.220;2023-04-24T20:30:07;6.80;;;5.30;;
48873;SDS011;66155;46.204;5.220;2023-04-24T20:35:15;10.30;;;5.68;;
48873;SDS011;66155;46.204;5.220;2023-04-24T20:40:15;6.18;;;5.57;;
48873;SDS011;66155;46.204;5.220;2023-04-24T20:45:16;9.48;;;6.10;;
48873;SDS011;66155;46.204;5.220;2023-04-24T20:50:17;7.93;;;6.00;;
48873;SDS011;66155;46.204;5.220;2023-04-24T20:55:17;6.15;;;5.07;;
48873;SDS011;66155;46.204;5.220;2023-04-24T21:00:18;7.85;;;6.80;;
48873;SDS011;66155;46.204;5.220;2023-04-24T21:05:18;8.15;;;5.70;;
48873;SDS011;66155;46.204;5.220;2023-04-24T21:10:19;11.35;;;4.65;;
48873;SDS011;66155;46.204;5.220;2023-04-24T21:15:20;6.72;;;5.00;;
48873;SDS011;66155;46.204;5.220;2023-04-24T21:20:20;6.47;;;4.63;;
48873;SDS011;66155;46.204;5.220;2023-04-24T21:25:21;6.38;;;4.30;;
48873;SDS011;66155;46.204;5.220;2023-04-24T21:30:21;8.35;;;5.97;;
48873;SDS011;66155;46.204;5.220;2023-04-24T21:35:22;7.13;;;5.18;;
48873;SDS011;66155;46.204;5.220;2023-04-24T21:40:22;7.53;;;6.00;;
48873;SDS011;66155;46.204;5.220;2023-04-24T21:45:23;7.82;;;4.53;;
48873;SDS011;66155;46.204;5.220;2023-04-24T21:50:24;5.35;;;4.82;;
48873;SDS011;66155;46.204;5.220;2023-04-24T21:55:24;5.85;;;5.15;;
48873;SDS011;66155;46.204;5.220;2023-04-24T22:00:25;7.72;;;5.07;;
48873;SDS011;66155;46.204;5.220;2023-04-24T22:05:26;6.65;;;4.32;;
48873;SDS011;66155;46.204;5.220;2023-04-24T22:10:27;5.25;;;4.60;;
48873;SDS011;66155;46.204;5.220;2023-04-24T22:15:27;6.50;;;4.32;;
48873;SDS011;66155;46.204;5.220;2023-04-24T22:20:28;7.63;;;4.28;;
48873;SDS011;66155;46.204;5.220;2023-04-24T22:25:29;6.35;;;4.43;;
48873;SDS011;66155;46.204;5.220;2023-04-24T22:30:30;7.55;;;4.18;;
48873;SDS011;66155;46.204;5.220;2023-04-24T22:35:30;5.88;;;4.03;;
48873;SDS011;66155;46.204;5.220;2023-04-24T22:40:31;8.18;;;3.70;;
48873;SDS011;66155;46.204;5.220;2023-04-24T22:45:34;5.35;;;4.10;;
48873;SDS011;66155;46.204;5.220;2023-04-24T22:50:34;5.82;;;4.72;;
48873;SDS011;66155;46.204;5.220;2023-04-24T22:55:35;7.65;;;4.03;;
48873;SDS011;66155;46.204;5.220;2023-04-24T23:00:37;5.53;;;4.43;;
48873;SDS011;66155;46.204;5.220;2023-04-24T23:05:37;7.10;;;4.22;;
48873;SDS011;66155;46.204;5.220;2023-04-24T23:10:38;4.32;;;3.92;;
48873;SDS011;66155;46.204;5.220;2023-04-24T23:15:38;7.50;;;5.40;;
48873;SDS011;66155;46.204;5.220;2023-04-24T23:20:39;5.78;;;4.35;;
48873;SDS011;66155;46.204;5.220;2023-04-24T23:25:39;6.43;;;4.35;;
48873;SDS011;66155;46.204;5.220;2023-04-24T23:30:40;11.25;;;4.95;;
48873;SDS011;66155;46.204;5.220;2023-04-24T23:35:40;5.10;;;4.60;;
48873;SDS011;66155;46.204;5.220;2023-04-24T23:40:41;5.40;;;4.88;;
48873;SDS011;66155;46.204;5.220;2023-04-24T23:45:41;5.95;;;4.68;;
48873;SDS011;66155;46.204;5.220;2023-04-24T23:50:42;8.77;;;5.47;;
48873;SDS011;66155;46.204;5.220;2023-04-24T23:55:42;10.25;;;5.32;;
